createdAt,value
2019-03-19T00:04:15.743Z,67.6
2019-03-19T00:09:15.768Z,67.8
2019-03-19T00:14:15.729Z,68.6
2019-03-19T00:19:15.765Z,68.6
2019-03-19T00:24:15.710Z,68.8
2019-03-19T00:29:15.707Z,65.9
2019-03-19T00:34:15.712Z,63.9
2019-03-19T00:39:15.680Z,64.9
2019-03-19T00:44:16.953Z,66.5
2019-03-19T00:49:15.673Z,67
2019-03-19T00:54:15.674Z,67.4
2019-03-19T00:59:15.661Z,68.4
2019-03-19T01:04:15.722Z,68.5
2019-03-19T01:09:15.728Z,68.9
2019-03-19T01:14:15.682Z,68.9
2019-03-19T01:19:15.755Z,69.3
2019-03-19T01:24:15.644Z,69.2
2019-03-19T01:29:15.626Z,69.2
2019-03-19T01:34:15.641Z,69.4
2019-03-19T01:39:15.645Z,65.9
2019-03-19T01:44:15.614Z,65.9
2019-03-19T01:49:15.644Z,66.7
2019-03-19T01:54:15.670Z,67.9
2019-03-19T01:59:15.606Z,68.5
2019-03-19T02:04:15.596Z,68.7
2019-03-19T02:09:15.581Z,69.4
2019-03-19T02:14:15.614Z,69.4
2019-03-19T02:19:15.618Z,69.8
2019-03-19T02:24:15.613Z,70.3
2019-03-19T02:29:15.598Z,70.6
2019-03-19T02:34:15.681Z,70.9
2019-03-19T02:39:15.640Z,71
2019-03-19T02:44:15.610Z,71.7
2019-03-19T02:49:15.589Z,69.2
2019-03-19T02:54:15.583Z,69.2
2019-03-19T02:59:15.587Z,69.8
2019-03-19T03:04:15.594Z,70.5
2019-03-19T03:09:15.541Z,70.9
2019-03-19T03:14:15.556Z,71.1
2019-03-19T03:19:15.536Z,71.3
2019-03-19T03:24:15.560Z,71.5
2019-03-19T03:29:15.601Z,71.6
2019-03-19T03:34:15.610Z,71.8
2019-03-19T03:39:15.512Z,71.8
2019-03-19T03:44:15.534Z,71.8
2019-03-19T03:49:15.521Z,72
2019-03-19T03:54:15.623Z,72.2
2019-03-19T03:59:15.473Z,72.5
2019-03-19T04:04:15.528Z,72.5
2019-03-19T04:09:15.537Z,72.4
2019-03-19T04:14:15.539Z,72.9
2019-03-19T04:19:15.466Z,71.4
2019-03-19T04:24:15.474Z,70.5
2019-03-19T04:29:15.485Z,70.9
2019-03-19T04:34:15.424Z,71.8
2019-03-19T04:39:15.493Z,72
2019-03-19T04:44:15.454Z,72.1
2019-03-19T04:49:15.449Z,72.1
2019-03-19T04:54:15.457Z,72.3
2019-03-19T04:59:15.465Z,72.5
2019-03-19T05:04:15.422Z,72.9
2019-03-19T05:09:15.413Z,72.5
2019-03-19T05:14:15.395Z,73.1
2019-03-19T05:19:15.425Z,73
2019-03-19T05:24:15.381Z,72.3
2019-03-19T05:29:15.399Z,73
2019-03-19T05:34:15.431Z,73.4
2019-03-19T05:39:15.360Z,72.2
2019-03-19T05:44:15.363Z,71.8
2019-03-19T05:49:15.405Z,79.7
2019-03-19T05:54:15.680Z,74.6
2019-03-19T05:59:15.369Z,73.8
2019-03-19T06:04:15.423Z,72.3
2019-03-19T06:09:15.330Z,73
2019-03-19T06:14:15.362Z,72.9
2019-03-19T06:19:15.318Z,72.8
2019-03-19T06:24:15.385Z,72.5
2019-03-19T06:29:15.332Z,72.8
2019-03-19T06:34:15.370Z,74.1
2019-03-19T06:39:15.329Z,74.6
2019-03-19T06:44:15.281Z,74.3
2019-03-19T06:49:15.391Z,72.8
2019-03-19T06:54:15.340Z,72.6
2019-03-19T06:59:15.296Z,72.6
2019-03-19T07:04:15.300Z,72.9
2019-03-19T07:09:15.302Z,72.5
2019-03-19T07:14:15.291Z,72.5
2019-03-19T07:19:15.314Z,72.4
2019-03-19T07:24:15.255Z,72.4
2019-03-19T07:29:15.279Z,72.3
2019-03-19T07:34:15.280Z,72.2
2019-03-19T07:39:15.310Z,72.3
2019-03-19T07:44:16.833Z,72.3
2019-03-19T07:49:15.280Z,72.2
2019-03-19T07:54:15.256Z,72.1
2019-03-19T07:59:15.225Z,72
2019-03-19T08:04:15.261Z,72
2019-03-19T08:09:15.258Z,71.8
2019-03-19T08:14:15.214Z,71.7
2019-03-19T08:19:15.238Z,71.5
2019-03-19T08:24:15.213Z,71.5
2019-03-19T08:29:15.231Z,71.5
2019-03-19T08:34:15.182Z,71.4
2019-03-19T08:39:15.189Z,71.7
2019-03-19T08:44:15.187Z,71.5
2019-03-19T08:49:15.182Z,71.6
2019-03-19T08:54:15.173Z,71.5
2019-03-19T08:59:15.190Z,71.9
2019-03-19T09:04:15.160Z,71.8
2019-03-19T09:09:15.132Z,71.8
2019-03-19T09:14:15.189Z,71.9
2019-03-19T09:19:15.155Z,71.8
2019-03-19T09:24:15.155Z,71.7
2019-03-19T09:29:17.613Z,71.7
2019-03-19T09:34:15.184Z,71.7
2019-03-19T09:39:15.121Z,71.8
2019-03-19T09:44:15.085Z,72
2019-03-19T09:49:15.178Z,72
2019-03-19T09:54:15.224Z,72.1
2019-03-19T09:59:15.115Z,72
2019-03-19T10:04:15.084Z,72.1
2019-03-19T10:09:15.113Z,72.2
2019-03-19T10:14:15.091Z,72.3
2019-03-19T10:19:15.131Z,72.2
2019-03-19T10:24:15.100Z,72.2
2019-03-19T10:29:15.092Z,72.1
2019-03-19T10:34:15.082Z,72.4
2019-03-19T10:39:15.061Z,72.1
2019-03-19T10:44:15.080Z,72.1
2019-03-19T10:49:15.070Z,72.2
2019-03-19T10:54:15.025Z,72
2019-03-19T10:59:15.090Z,72.1
2019-03-19T11:04:15.002Z,72.2
2019-03-19T11:09:15.019Z,72.2
2019-03-19T11:14:15.081Z,72.1
2019-03-19T11:19:15.013Z,72
2019-03-19T11:24:14.987Z,72.3
2019-03-19T11:29:15.007Z,72.1
2019-03-19T11:34:14.982Z,72.7
2019-03-19T11:39:15.016Z,72.3
2019-03-19T11:44:14.993Z,72.2
2019-03-19T11:49:15.016Z,72.1
2019-03-19T11:54:14.981Z,72.1
2019-03-19T11:59:14.963Z,72
2019-03-19T12:04:15.008Z,72
2019-03-19T12:09:14.976Z,72
2019-03-19T12:14:16.123Z,72.1
2019-03-19T12:19:14.983Z,72.1
2019-03-19T12:24:14.934Z,72.1
2019-03-19T12:29:14.948Z,72.1
2019-03-19T12:34:14.968Z,72.1
2019-03-19T12:39:14.946Z,72.2
2019-03-19T12:44:14.903Z,72.2
2019-03-19T12:49:14.949Z,71.7
2019-03-19T12:54:14.909Z,71.9
2019-03-19T12:59:20.873Z,72
2019-03-19T13:04:14.913Z,72
2019-03-19T13:09:14.898Z,71.8
2019-03-19T13:14:14.904Z,71.8
2019-03-19T13:19:14.876Z,71.9
2019-03-19T13:24:17.641Z,71.9
2019-03-19T13:29:14.880Z,71.7
2019-03-19T13:34:14.877Z,71.6
2019-03-19T13:39:14.904Z,71.6
2019-03-19T13:44:14.871Z,71.6
2019-03-19T13:49:14.884Z,71.6
2019-03-19T13:54:16.995Z,71.6
2019-03-19T13:59:15.097Z,71.5
2019-03-19T14:04:14.825Z,71.5
2019-03-19T14:09:14.861Z,71.4
2019-03-19T14:14:14.832Z,71.5
2019-03-19T14:19:14.811Z,71.4
2019-03-19T14:24:14.862Z,71.3
2019-03-19T14:29:14.815Z,71.4
2019-03-19T14:34:14.777Z,71.3
2019-03-19T14:39:14.844Z,71.2
2019-03-19T14:44:14.808Z,71.4
2019-03-19T14:49:14.791Z,71.3
2019-03-19T14:54:14.799Z,71.3
2019-03-19T14:59:14.775Z,71.3
2019-03-19T15:04:14.772Z,71.5
2019-03-19T15:09:14.817Z,71.2
2019-03-19T15:14:14.760Z,71.3
2019-03-19T15:19:14.779Z,71.3
2019-03-19T15:29:14.771Z,71.2
2019-03-19T15:34:14.759Z,71.1
2019-03-19T15:44:15.465Z,70.9
2019-03-19T15:49:15.462Z,71.3
2019-03-19T15:54:15.454Z,71.5
2019-03-19T15:59:15.465Z,71.6
2019-03-19T16:04:15.429Z,71.5
2019-03-19T16:09:15.446Z,71.5
2019-03-19T16:14:15.449Z,71.6
2019-03-19T16:19:15.409Z,71.7
2019-03-19T16:24:15.436Z,71.8
2019-03-19T16:29:15.483Z,71.8
2019-03-19T16:34:15.392Z,71.9
2019-03-19T16:39:15.425Z,72
2019-03-19T16:44:15.417Z,71.4
2019-03-19T16:49:15.442Z,72.3
2019-03-19T16:54:15.413Z,72.3
2019-03-19T16:59:21.492Z,72.3
2019-03-19T17:04:20.198Z,72.5
2019-03-19T17:09:20.363Z,72.5
2019-03-19T17:14:20.198Z,72.5
2019-03-19T17:19:20.203Z,72.7
2019-03-19T17:24:21.630Z,72.6
2019-03-19T17:29:20.171Z,72.7
2019-03-19T17:34:20.202Z,72.8
2019-03-19T17:39:20.169Z,72.7
2019-03-19T17:44:20.164Z,72.9
2019-03-19T17:49:20.146Z,72.9
2019-03-19T17:54:20.137Z,73.1
2019-03-19T17:59:20.169Z,73.1
2019-03-19T18:04:20.197Z,73.2
2019-03-19T18:09:20.127Z,73.1
2019-03-19T18:14:20.116Z,73.9
2019-03-19T18:19:20.105Z,73.3
2019-03-19T18:24:20.116Z,73.3
2019-03-19T18:29:20.110Z,72.4
2019-03-19T18:34:20.071Z,71.8
2019-03-19T18:39:20.090Z,71.6
2019-03-19T18:44:20.099Z,71.8
2019-03-19T18:49:20.051Z,71.9
2019-03-19T18:54:20.046Z,72
2019-03-19T18:59:20.080Z,72.1
2019-03-19T19:04:20.032Z,72.4
2019-03-19T19:09:20.049Z,72.5
2019-03-19T19:14:20.164Z,72.6
2019-03-19T19:19:20.053Z,72.7
2019-03-19T19:24:20.058Z,72.9
2019-03-19T19:29:21.145Z,72.6
2019-03-19T19:34:21.532Z,72
2019-03-19T19:39:21.466Z,72
2019-03-19T19:44:21.544Z,72.2
2019-03-19T19:49:21.644Z,72.4
2019-03-19T19:54:21.521Z,72.5
2019-03-19T19:59:21.554Z,72.5
2019-03-19T20:04:21.472Z,72.6
2019-03-19T20:09:21.474Z,72.7
2019-03-19T20:14:21.454Z,72.8
2019-03-19T20:19:21.460Z,72.8
2019-03-19T20:24:21.505Z,73.1
2019-03-19T20:29:21.454Z,73.1
2019-03-19T20:34:21.471Z,73.2
2019-03-19T20:39:21.443Z,73.2
2019-03-19T20:44:21.600Z,73.1
2019-03-19T20:49:21.410Z,73.2
2019-03-19T20:54:21.411Z,73.2
2019-03-19T20:59:21.427Z,73.4
2019-03-19T21:04:21.416Z,73.3
2019-03-19T21:09:21.403Z,73.2
2019-03-19T21:14:21.415Z,73.3
2019-03-19T21:19:21.477Z,73.4
2019-03-19T21:24:21.359Z,73
2019-03-19T21:29:21.389Z,73
2019-03-19T21:34:21.414Z,73.2
2019-03-19T21:39:21.380Z,73.2
2019-03-19T21:48:13.352Z,73.5
2019-03-19T21:53:13.303Z,73.6
2019-03-19T21:58:13.283Z,73.6
2019-03-19T22:03:13.298Z,73.7
2019-03-19T22:08:13.296Z,73.8
2019-03-19T22:13:13.292Z,73.7
2019-03-19T22:18:13.288Z,73.8
2019-03-19T22:23:13.333Z,73.8
2019-03-19T22:28:13.276Z,73.8
2019-03-19T22:33:13.289Z,73.8
2019-03-19T22:38:13.283Z,73.9
2019-03-19T22:43:13.231Z,74
2019-03-19T22:48:17.172Z,74
2019-03-19T22:53:17.139Z,74.1
2019-03-19T22:58:17.142Z,74.1
2019-03-19T23:03:17.174Z,74.1
2019-03-19T23:08:17.159Z,74.1
2019-03-19T23:13:17.108Z,74.1
2019-03-19T23:18:17.121Z,74
2019-03-19T23:23:17.143Z,74
2019-03-19T23:28:17.128Z,74
2019-03-19T23:33:17.135Z,74.2
2019-03-19T23:38:17.080Z,74.3
2019-03-19T23:43:17.168Z,74.3
2019-03-19T23:48:17.069Z,74.4
2019-03-19T23:53:17.096Z,74.5
2019-03-19T23:58:17.079Z,74.4
